Time;durP1;ratioP1;P1;durP2;ratioP2;P2;SDS_P1;SDS_P2;PMS_P1;PMS_P2;Temp;Humidity;BMP_temperature;BMP_pressure;BME280_temperature;BME280_humidity;BME280_pressure;Samples;Min_cycle;Max_cycle;Signal;HPM_P1;HPM_P2
2022/09/01 00:01:51;;;;;;;10.08;4.45;;;;;;;12.37;78.85;100715.73;2175275;80;21026;-71
2022/09/01 00:04:57;;;;;;;6.70;4.53;;;;;;;12.37;78.92;100715.73;2186806;79;21011;-72
2022/09/01 00:07:58;;;;;;;9.65;4.60;;;;;;;12.36;78.89;100718.55;2195314;80;20990;-72
2022/09/01 00:10:59;;;;;;;9.98;4.33;;;;;;;12.33;79.06;100714.38;2187519;79;21098;-73
2022/09/01 00:14:04;;;;;;;8.85;4.60;;;;;;;12.34;79.06;100714.73;2187711;79;20995;-71
2022/09/01 00:17:09;;;;;;;8.08;5.17;;;;;;;12.33;79.16;100714.38;2185057;79;20997;-72
2022/09/01 00:20:11;;;;;;;8.65;4.50;;;;;;;12.36;79.49;100717.22;2190868;79;21041;-76
2022/09/01 00:23:12;;;;;;;7.80;4.40;;;;;;;12.37;79.49;100717.06;2187393;79;21026;-71
2022/09/01 00:26:13;;;;;;;12.05;4.37;;;;;;;12.41;79.58;100718.39;2187546;79;21050;-73
2022/09/01 00:29:15;;;;;;;8.95;4.20;;;;;;;12.43;79.57;100717.73;2187151;79;21001;-72
2022/09/01 00:32:16;;;;;;;8.53;3.75;;;;;;;12.44;79.54;100714.06;2184735;79;21528;-71
2022/09/01 00:35:19;;;;;;;7.30;4.30;;;;;;;12.43;79.58;100713.74;2182811;79;20978;-74
2022/09/01 00:38:20;;;;;;;7.53;4.15;;;;;;;12.41;79.76;100710.41;2182671;80;20998;-72
2022/09/01 00:41:25;;;;;;;7.50;3.90;;;;;;;12.42;79.74;100714.75;2188087;79;20967;-71
2022/09/01 00:44:27;;;;;;;10.72;4.15;;;;;;;12.45;79.80;100719.74;2186089;79;21090;-72
2022/09/01 00:47:28;;;;;;;5.75;3.67;;;;;;;12.46;79.89;100718.73;2189268;79;20955;-71
2022/09/01 00:50:29;;;;;;;11.95;3.95;;;;;;;12.48;79.99;100708.77;2184027;79;21470;-72
2022/09/01 00:53:33;;;;;;;5.95;3.67;;;;;;;12.51;80.08;100710.27;2190500;79;21034;-72
2022/09/01 00:56:38;;;;;;;7.95;4.10;;;;;;;12.51;80.10;100707.61;2186353;80;21098;-71
2022/09/01 00:59:54;;;;;;;9.63;4.35;;;;;;;12.52;80.17;100703.43;2161351;80;21001;-72
2022/09/01 01:02:55;;;;;;;6.05;3.60;;;;;;;12.51;80.27;100703.61;2183799;79;20948;-72
2022/09/01 01:06:00;;;;;;;5.37;3.62;;;;;;;12.51;80.32;100701.78;2188624;79;21005;-71
2022/09/01 01:09:01;;;;;;;7.00;3.27;;;;;;;12.51;80.48;100693.80;2161347;79;21556;-77
2022/09/01 01:12:06;;;;;;;6.42;3.58;;;;;;;12.52;80.49;100703.94;2189748;80;20927;-71
2022/09/01 01:15:12;;;;;;;6.60;3.62;;;;;;;12.53;80.63;100693.14;2188053;79;21050;-71
2022/09/01 01:18:15;;;;;;;7.62;3.80;;;;;;;12.55;80.68;100699.11;2191924;79;21022;-72
2022/09/01 01:24:51;;;;;;;10.23;3.67;;;;;;;12.56;80.91;100697.30;2188612;79;21557;-72
2022/09/01 01:28:19;;;;;;;8.70;3.77;;;;;;;12.56;80.86;100706.12;2182837;79;21053;-71
2022/09/01 01:31:22;;;;;;;7.33;3.62;;;;;;;12.60;80.94;100701.28;2185818;79;21011;-72
2022/09/01 01:34:24;;;;;;;6.30;3.10;;;;;;;12.62;81.04;100696.63;2186589;79;21544;-71
2022/09/01 01:37:26;;;;;;;6.40;3.42;;;;;;;12.64;81.06;100696.45;2186363;79;21513;-74
2022/09/01 01:40:28;;;;;;;7.22;3.50;;;;;;;12.68;81.06;100701.80;2158637;80;20981;-72
2022/09/01 01:43:30;;;;;;;4.97;3.35;;;;;;;12.67;81.11;100694.78;2187786;79;21588;-72
2022/09/01 01:46:34;;;;;;;6.12;2.90;;;;;;;12.68;81.17;100695.97;2188708;80;21043;-72
2022/09/01 01:49:36;;;;;;;6.10;3.60;;;;;;;12.70;81.12;100691.31;2164295;79;20992;-73
2022/09/01 01:52:37;;;;;;;4.15;2.90;;;;;;;12.72;81.18;100689.80;2188809;79;21034;-73
2022/09/01 01:55:40;;;;;;;6.40;3.15;;;;;;;12.74;81.27;100685.15;2187971;80;21009;-75
2022/09/01 01:58:42;;;;;;;5.75;2.95;;;;;;;12.76;81.26;100685.31;2207429;79;21058;-72
2022/09/01 02:01:48;;;;;;;4.65;3.60;;;;;;;12.76;81.25;100683.98;2189034;79;20961;-71
2022/09/01 02:04:48;;;;;;;6.25;3.20;;;;;;;12.78;81.39;100680.66;2188573;79;20982;-72
2022/09/01 02:07:58;;;;;;;5.15;3.10;;;;;;;12.78;81.34;100685.13;2185144;79;21010;-71
2022/09/01 02:10:59;;;;;;;6.62;3.80;;;;;;;12.81;81.49;100690.63;2185755;79;20967;-80
2022/09/01 02:14:00;;;;;;;4.85;3.10;;;;;;;12.83;81.52;100692.13;2162065;80;20998;-73
2022/09/01 02:17:02;;;;;;;5.53;3.20;;;;;;;12.84;81.54;100687.63;2194061;80;21080;-71
2022/09/01 02:20:05;;;;;;;4.30;3.00;;;;;;;12.83;81.60;100684.14;2168679;79;20963;-71
2022/09/01 02:23:10;;;;;;;5.35;2.98;;;;;;;12.83;81.53;100683.31;2187015;79;21100;-75
2022/09/01 02:26:11;;;;;;;4.35;2.85;;;;;;;12.82;81.48;100684.32;2184604;79;20974;-71
2022/09/01 02:29:20;;;;;;;7.12;2.77;;;;;;;12.78;81.53;100685.13;2185652;79;21494;-72
2022/09/01 02:32:21;;;;;;;7.60;2.90;;;;;;;12.77;81.61;100688.30;2183895;80;21054;-71
2022/09/01 02:35:27;;;;;;;4.45;3.10;;;;;;;12.78;81.74;100689.13;2160467;80;21002;-73
2022/09/01 02:38:28;;;;;;;7.60;3.00;;;;;;;12.78;81.74;100687.80;2190498;79;21049;-71
2022/09/01 02:41:33;;;;;;;4.72;3.22;;;;;;;12.78;81.67;100679.80;2183704;79;21421;-73
2022/09/01 02:44:35;;;;;;;4.92;3.25;;;;;;;12.78;81.67;100679.33;2166488;79;21069;-72
2022/09/01 02:47:40;;;;;;;3.92;2.67;;;;;;;12.78;81.67;100682.47;2187829;80;21006;-73
2022/09/01 02:50:42;;;;;;;5.72;2.90;;;;;;;12.79;81.61;100684.16;2191125;79;21430;-72
2022/09/01 02:53:48;;;;;;;5.37;2.90;;;;;;;12.79;81.52;100682.31;2185991;79;20985;-72
2022/09/01 02:56:48;;;;;;;4.70;2.75;;;;;;;12.79;81.55;100684.98;2188366;80;20998;-71
2022/09/01 02:59:50;;;;;;;4.30;2.77;;;;;;;12.81;81.57;100684.83;2187637;79;21021;-74
2022/09/01 03:02:52;;;;;;;7.22;3.15;;;;;;;12.83;81.47;100684.14;2187266;79;20963;-71
2022/09/01 03:05:55;;;;;;;2.77;2.20;;;;;;;12.84;81.48;100682.30;2184243;79;20998;-74
2022/09/01 03:09:00;;;;;;;8.28;2.80;;;;;;;12.83;81.34;100682.80;2183876;79;21021;-72
2022/09/01 03:12:03;;;;;;;4.65;2.72;;;;;;;12.85;81.44;100676.82;2164229;80;21065;-74
2022/09/01 03:15:06;;;;;;;5.50;2.67;;;;;;;12.85;81.26;100677.33;2186340;79;21010;-72
2022/09/01 03:18:10;;;;;;;6.20;2.80;;;;;;;12.86;81.27;100682.47;2161310;79;21008;-71
2022/09/01 03:21:15;;;;;;;4.97;2.58;;;;;;;12.84;81.15;100677.83;2184327;79;21021;-71
2022/09/01 03:24:18;;;;;;;4.37;2.30;;;;;;;12.79;81.07;100676.16;2188384;79;21018;-73
2022/09/01 03:27:19;;;;;;;3.60;2.42;;;;;;;12.78;81.11;100682.00;2186634;79;21021;-71
2022/09/01 03:30:20;;;;;;;5.15;2.42;;;;;;;12.75;81.15;100681.00;2164119;80;20994;-74
2022/09/01 03:33:25;;;;;;;3.42;2.45;;;;;;;12.71;81.15;100692.14;2188311;80;20987;-73
2022/09/01 03:36:27;;;;;;;3.80;2.58;;;;;;;12.69;81.21;100686.14;2183986;79;20974;-74
2022/09/01 03:39:29;;;;;;;4.65;2.65;;;;;;;12.69;81.24;100678.98;2187002;79;21058;-72
2022/09/01 03:42:31;;;;;;;4.10;2.58;;;;;;;12.72;81.24;100677.81;2185987;79;21884;-72
2022/09/01 03:45:37;;;;;;;4.08;3.00;;;;;;;12.75;81.21;100678.34;2187821;79;21003;-75
2022/09/01 03:48:36;;;;;;;3.33;2.50;;;;;;;12.78;81.19;100674.00;2187266;79;21018;-71
2022/09/01 03:51:38;;;;;;;4.30;2.98;;;;;;;12.81;81.12;100679.50;2186750;79;20987;-75
2022/09/01 03:54:42;;;;;;;5.50;2.72;;;;;;;12.80;81.09;100685.80;2182039;79;20978;-82
2022/09/01 03:57:46;;;;;;;4.08;2.45;;;;;;;12.80;81.10;100679.14;2184563;79;21050;-82
2022/09/01 04:00:57;;;;;;;4.15;2.95;;;;;;;12.81;81.04;100684.83;2183012;79;21023;-74
2022/09/01 04:03:55;;;;;;;6.25;3.15;;;;;;;12.83;81.05;100695.29;2188685;79;21528;-73
2022/09/01 04:07:01;;;;;;;8.00;2.80;;;;;;;12.80;81.04;100693.80;2188945;79;21006;-71
2022/09/01 04:10:10;;;;;;;6.42;3.05;;;;;;;12.77;81.06;100695.46;2183725;79;21059;-71
2022/09/01 04:13:11;;;;;;;5.60;2.80;;;;;;;12.75;81.25;100690.32;2184730;79;20975;-72
2022/09/01 04:19:46;;;;;;;8.35;2.95;;;;;;;12.72;81.25;100682.64;2089704;83;21054;-73
2022/09/01 04:22:49;;;;;;;8.50;2.60;;;;;;;12.72;81.32;100688.47;2186311;80;21004;-73
2022/09/01 04:25:55;;;;;;;5.75;3.05;;;;;;;12.73;81.36;100690.98;2191337;79;21042;-71
2022/09/01 04:28:57;;;;;;;7.40;2.85;;;;;;;12.71;81.40;100688.15;2179009;80;21002;-71
2022/09/01 04:32:04;;;;;;;4.87;2.75;;;;;;;12.69;81.44;100691.47;2191168;79;21053;-75
2022/09/01 04:35:10;;;;;;;5.37;2.92;;;;;;;12.68;81.48;100690.64;2187268;80;21014;-72
2022/09/01 04:38:13;;;;;;;6.62;3.27;;;;;;;12.71;81.55;100684.16;2191866;79;21081;-70
2022/09/01 04:41:16;;;;;;;5.65;2.98;;;;;;;12.78;81.57;100686.46;2188445;80;21005;-75
2022/09/01 04:44:18;;;;;;;8.30;3.72;;;;;;;12.81;81.46;100689.30;2190072;80;21038;-74
2022/09/01 04:47:28;;;;;;;7.22;2.98;;;;;;;12.79;81.50;100686.81;2151422;81;20983;-77
2022/09/01 04:50:29;;;;;;;7.97;3.35;;;;;;;12.79;81.64;100693.47;2115154;82;21035;-74
2022/09/01 04:53:31;;;;;;;4.50;3.02;;;;;;;12.81;81.71;100691.48;2083451;82;21039;-74
2022/09/01 04:56:34;;;;;;;5.10;3.17;;;;;;;12.83;81.81;100693.96;2115855;82;21001;-76
2022/09/01 04:59:49;;;;;;;4.97;3.17;;;;;;;12.81;81.83;100692.81;2117908;83;21078;-74
2022/09/01 05:03:01;;;;;;;4.30;3.10;;;;;;;12.84;81.88;100686.30;2107743;83;20968;-74
2022/09/01 05:06:01;;;;;;;6.80;3.50;;;;;;;12.86;81.97;100689.62;2116100;81;21548;-74
2022/09/01 05:09:03;;;;;;;6.08;3.55;;;;;;;12.93;82.08;100695.97;2137882;81;21014;-70
2022/09/01 05:12:14;;;;;;;5.15;3.20;;;;;;;12.94;82.18;100697.11;2188763;80;21005;-74
2022/09/01 05:15:17;;;;;;;5.40;3.30;;;;;;;12.93;82.26;100702.12;2183988;79;21041;-73
2022/09/01 05:18:23;;;;;;;4.95;3.75;;;;;;;12.88;82.52;100701.78;2193307;79;20991;-75
2022/09/01 05:21:25;;;;;;;4.25;3.42;;;;;;;12.91;82.74;100704.11;2186014;79;20994;-74
2022/09/01 05:24:29;;;;;;;7.25;3.77;;;;;;;12.94;82.66;100704.27;2190209;79;21438;-75
2022/09/01 05:27:32;;;;;;;7.28;3.90;;;;;;;12.97;82.64;100703.43;2190470;79;20961;-71
2022/09/01 05:30:35;;;;;;;8.05;4.10;;;;;;;13.04;82.67;100708.94;2186306;80;20923;-74
2022/09/01 05:33:38;;;;;;;4.78;3.47;;;;;;;13.11;82.75;100704.58;2192301;79;21019;-74
2022/09/01 05:36:45;;;;;;;10.85;3.27;;;;;;;13.16;82.93;100709.41;2166641;80;21463;-73
2022/09/01 05:39:46;;;;;;;5.05;3.55;;;;;;;13.16;83.06;100707.58;2195755;79;21006;-75
2022/09/01 05:42:47;;;;;;;11.63;3.80;;;;;;;13.20;83.06;100708.06;2190678;79;20979;-77
2022/09/01 05:45:48;;;;;;;5.40;3.77;;;;;;;13.28;83.21;100710.74;2147877;82;21034;-74
2022/09/01 05:48:52;;;;;;;6.25;3.70;;;;;;;13.35;83.11;100706.92;2116642;83;21032;-76
2022/09/01 05:51:57;;;;;;;6.97;3.70;;;;;;;13.58;83.46;100714.50;2116954;82;21730;-73
2022/09/01 05:54:59;;;;;;;4.47;3.50;;;;;;;13.83;82.78;100712.58;2152138;81;21668;-74
2022/09/01 05:58:00;;;;;;;6.08;3.58;;;;;;;13.91;82.13;100719.72;2106138;82;20986;-74
2022/09/01 06:01:02;;;;;;;10.18;3.70;;;;;;;13.99;81.61;100721.50;2141703;81;21027;-73
2022/09/01 06:04:04;;;;;;;7.40;3.27;;;;;;;14.20;81.88;100716.39;2117097;81;20994;-71
2022/09/01 06:07:08;;;;;;;8.25;3.15;;;;;;;14.60;81.95;100719.00;2141716;81;20971;-72
2022/09/01 06:10:13;;;;;;;6.78;3.15;;;;;;;14.98;81.45;100718.02;2141014;81;21069;-71
2022/09/01 06:13:14;;;;;;;4.55;2.95;;;;;;;15.20;80.02;100715.45;2111449;81;21056;-71
2022/09/01 06:16:18;;;;;;;5.60;3.05;;;;;;;15.24;79.25;100716.77;2148855;81;21030;-71
2022/09/01 06:19:19;;;;;;;5.75;2.92;;;;;;;15.40;78.86;100708.58;2155522;81;21046;-71
2022/09/01 06:22:23;;;;;;;4.58;3.02;;;;;;;15.46;78.40;100712.36;2133629;82;20971;-71
2022/09/01 06:25:29;;;;;;;6.42;2.80;;;;;;;15.76;78.60;100714.53;2157269;81;21004;-71
2022/09/01 06:28:28;;;;;;;6.85;2.90;;;;;;;15.93;77.34;100709.80;2150588;81;21008;-74
2022/09/01 06:31:33;;;;;;;4.87;2.58;;;;;;;16.08;76.31;100715.15;2152409;81;20954;-75
2022/09/01 06:34:43;;;;;;;3.30;2.27;;;;;;;16.07;75.40;100707.59;2136567;81;21024;-76
2022/09/01 06:37:46;;;;;;;4.55;2.60;;;;;;;16.16;75.22;100716.34;2133726;82;21003;-71
2022/09/01 06:40:48;;;;;;;4.25;2.65;;;;;;;16.25;75.21;100717.09;2111271;82;21498;-72
2022/09/01 06:43:52;;;;;;;7.05;2.50;;;;;;;16.34;74.82;100718.11;2134395;81;21007;-71
2022/09/01 06:46:53;;;;;;;5.08;2.30;;;;;;;16.62;75.31;100721.89;2131694;82;21145;-71
2022/09/01 06:49:57;;;;;;;3.42;1.90;;;;;;;17.17;73.90;100722.98;2130902;81;20994;-71
2022/09/01 06:53:13;;;;;;;3.33;2.05;;;;;;;17.02;71.93;100722.57;2111479;81;21101;-74
2022/09/01 06:56:17;;;;;;;4.72;2.08;;;;;;;17.00;71.56;100729.97;2132286;81;21000;-72
2022/09/01 06:59:20;;;;;;;2.50;1.67;;;;;;;17.51;71.00;100741.47;2135141;81;21010;-73
2022/09/01 07:02:23;;;;;;;4.42;2.20;;;;;;;17.54;69.20;100729.86;2138256;81;21089;-71
2022/09/01 07:05:33;;;;;;;4.50;1.90;;;;;;;18.04;70.62;100729.17;2136292;81;21068;-74
2022/09/01 07:08:38;;;;;;;4.15;2.42;;;;;;;18.67;69.67;100727.59;2125904;82;21049;-71
2022/09/01 07:11:40;;;;;;;5.28;2.00;;;;;;;18.74;68.43;100731.13;2134352;82;21122;-71
2022/09/01 07:14:41;;;;;;;3.15;2.05;;;;;;;18.76;67.14;100730.41;2136166;82;21027;-72
2022/09/01 07:17:51;;;;;;;5.42;1.77;;;;;;;18.73;67.82;100729.45;2135492;83;21851;-72
2022/09/01 07:20:53;;;;;;;4.95;2.10;;;;;;;19.03;67.85;100735.79;2111321;83;21043;-72
2022/09/01 07:23:57;;;;;;;4.90;2.02;;;;;;;19.69;67.84;100734.91;2133741;82;20982;-74
2022/09/01 07:26:58;;;;;;;2.92;1.60;;;;;;;20.17;65.45;100730.98;2130210;82;20988;-70
2022/09/01 07:29:59;;;;;;;4.70;2.10;;;;;;;20.29;62.37;100735.47;2130523;82;21018;-73
2022/09/01 07:33:01;;;;;;;2.60;1.72;;;;;;;20.05;63.50;100737.05;2132157;81;21090;-73
2022/09/01 07:36:03;;;;;;;1.30;1.20;;;;;;;20.33;63.75;100745.31;2139055;81;21043;-72
2022/09/01 07:39:06;;;;;;;2.08;1.52;;;;;;;20.58;61.91;100738.14;2132481;82;21050;-72
2022/09/01 07:42:10;;;;;;;2.35;1.47;;;;;;;20.66;61.22;100749.69;2132946;81;21482;-80
2022/09/01 07:45:30;;;;;;;2.92;1.72;;;;;;;20.87;60.30;100749.34;2133717;83;21046;-73
2022/09/01 07:48:33;;;;;;;2.50;1.45;;;;;;;21.14;56.83;100743.18;2134403;81;20963;-72
2022/09/01 07:51:35;;;;;;;3.55;1.50;;;;;;;21.23;57.51;100745.07;2141233;81;21058;-72
2022/09/01 07:54:36;;;;;;;1.95;1.45;;;;;;;21.48;58.87;100743.72;2112334;82;21026;-74
2022/09/01 07:57:41;;;;;;;2.77;1.57;;;;;;;21.43;57.18;100746.29;2146341;81;21010;-74
2022/09/01 08:00:46;;;;;;;2.77;1.17;;;;;;;21.27;56.00;100748.47;2122274;83;21010;-73
2022/09/01 08:03:56;;;;;;;4.25;1.45;;;;;;;21.49;57.79;100752.96;2090663;83;20987;-73
2022/09/01 08:06:57;;;;;;;4.37;1.55;;;;;;;21.77;57.25;100744.06;2116606;83;20982;-73
2022/09/01 08:09:59;;;;;;;4.60;1.50;;;;;;;22.02;54.90;100739.39;2113209;83;21581;-73
2022/09/01 08:13:00;;;;;;;3.02;1.40;;;;;;;22.13;53.92;100745.87;2119180;82;21015;-74
2022/09/01 08:16:06;;;;;;;2.95;1.00;;;;;;;21.64;53.64;100747.19;2093477;83;21044;-72
2022/09/01 08:19:08;;;;;;;2.10;1.12;;;;;;;21.58;52.69;100744.58;2167896;80;21030;-73
2022/09/01 08:22:27;;;;;;;2.47;1.22;;;;;;;21.25;50.11;100757.30;2187215;79;20959;-72
2022/09/01 08:25:34;;;;;;;1.98;1.10;;;;;;;21.15;53.50;100750.25;2184630;79;20970;-72
2022/09/01 08:28:35;;;;;;;1.65;1.30;;;;;;;21.48;53.42;100754.02;2187371;80;21480;-73
2022/09/01 08:31:36;;;;;;;2.98;1.30;;;;;;;21.82;53.34;100756.34;2157764;80;21073;-75
2022/09/01 08:34:38;;;;;;;1.22;1.12;;;;;;;22.27;53.45;100751.46;2184023;79;21473;-74
2022/09/01 08:37:39;;;;;;;2.00;1.10;;;;;;;22.15;51.06;100755.94;2193228;80;21046;-72
2022/09/01 08:40:42;;;;;;;2.30;1.37;;;;;;;22.08;51.05;100753.86;2189590;80;21025;-73
2022/09/01 08:44:13;;;;;;;3.02;1.02;;;;;;;22.01;50.31;100747.17;2169358;80;21079;-72
2022/09/01 08:47:18;;;;;;;3.50;1.22;;;;;;;22.09;51.15;100752.80;2189928;79;21064;-71
2022/09/01 08:50:19;;;;;;;3.02;1.10;;;;;;;21.35;49.82;100758.16;2192124;80;21018;-74
2022/09/01 08:53:56;;;;;;;2.80;1.77;;;;;;;21.37;50.96;100761.50;2192353;79;21067;-74
2022/09/01 08:57:04;;;;;;;1.50;1.22;;;;;;;21.82;51.08;100754.48;2192913;79;21085;-73
2022/09/01 09:00:31;;;;;;;2.55;1.87;;;;;;;22.10;48.92;100751.73;2190869;80;21017;-73
2022/09/01 09:04:09;;;;;;;2.15;1.32;;;;;;;22.08;49.50;100746.58;2158600;79;20951;-73
2022/09/01 09:07:37;;;;;;;2.55;1.77;;;;;;;21.94;47.56;100751.31;2163915;80;21022;-76
2022/09/01 09:11:00;;;;;;;3.37;2.33;;;;;;;22.06;49.67;100751.38;2188007;80;21051;-76
2022/09/01 09:14:20;;;;;;;2.37;2.17;;;;;;;22.00;46.88;100751.47;2187429;80;21018;-77
2022/09/01 09:17:29;;;;;;;2.65;1.92;;;;;;;21.18;46.05;100751.69;2186016;79;21053;-75
2022/09/01 09:20:30;;;;;;;3.33;2.37;;;;;;;20.57;48.26;100756.69;2187019;80;20971;-73
2022/09/01 09:23:35;;;;;;;3.35;2.80;;;;;;;20.11;49.27;100755.57;2189653;79;21019;-72
2022/09/01 09:26:36;;;;;;;2.42;2.00;;;;;;;19.88;49.98;100762.28;2193092;79;21010;-73
2022/09/01 09:29:37;;;;;;;2.55;1.92;;;;;;;19.52;49.88;100754.69;2198254;79;21478;-72
2022/09/01 09:33:05;;;;;;;2.35;1.60;;;;;;;19.08;50.41;100753.48;2185897;79;21050;-74
2022/09/01 09:36:21;;;;;;;5.25;1.40;;;;;;;19.07;51.11;100753.18;2188280;79;22358;-76
2022/09/01 09:39:22;;;;;;;1.75;1.10;;;;;;;19.99;52.12;100747.34;2183412;79;21034;-75
2022/09/01 09:42:26;;;;;;;2.45;1.40;;;;;;;20.44;50.57;100748.67;2190393;80;21453;-74
2022/09/01 09:45:37;;;;;;;3.17;0.90;;;;;;;20.71;49.75;100745.82;2197859;80;21033;-76
2022/09/01 09:48:38;;;;;;;1.42;1.25;;;;;;;20.97;48.96;100740.21;2164190;79;21030;-73
2022/09/01 09:51:43;;;;;;;1.20;1.00;;;;;;;20.70;48.29;100738.79;2193558;80;21494;-72
2022/09/01 09:55:06;;;;;;;3.30;0.90;;;;;;;20.29;48.80;100750.81;2187088;79;21640;-78
2022/09/01 09:58:11;;;;;;;2.50;1.00;;;;;;;20.34;49.64;100744.27;2196255;79;21557;-74
2022/09/01 10:01:24;;;;;;;0.85;0.72;;;;;;;21.00;48.40;100741.12;2190754;80;21033;-74
2022/09/01 10:04:36;;;;;;;0.75;0.75;;;;;;;21.23;47.31;100740.52;2189361;80;21020;-73
2022/09/01 10:07:37;;;;;;;0.82;0.80;;;;;;;20.99;45.03;100745.41;2166528;80;21003;-74
2022/09/01 10:10:46;;;;;;;3.10;0.95;;;;;;;20.73;43.04;100735.66;2189550;79;21025;-72
2022/09/01 10:13:47;;;;;;;1.30;1.00;;;;;;;20.77;44.96;100736.85;2165517;80;20995;-73
2022/09/01 10:16:54;;;;;;;3.37;1.00;;;;;;;20.84;45.96;100734.12;2188495;79;21049;-77
2022/09/01 10:20:04;;;;;;;1.20;0.95;;;;;;;21.05;45.78;100739.12;2186920;79;20947;-74
2022/09/01 10:23:06;;;;;;;;;;;;;;;21.00;45.39;100737.07;2187328;79;21511;-73
2022/09/01 10:26:18;;;;;;;0.93;0.90;;;;;;;20.92;44.78;100734.67;2161014;80;20220;-73
2022/09/01 10:29:38;;;;;;;1.80;0.95;;;;;;;20.73;46.00;100735.13;2187782;79;20991;-74
2022/09/01 10:32:45;;;;;;;1.07;0.82;;;;;;;20.99;45.37;100735.96;2194387;79;20992;-76
2022/09/01 10:35:50;;;;;;;1.87;0.80;;;;;;;21.59;45.93;100728.66;2191184;79;21045;-76
2022/09/01 10:38:51;;;;;;;1.05;0.60;;;;;;;21.70;43.08;100730.08;2143730;80;20962;-76
2022/09/01 10:41:56;;;;;;;3.05;0.88;;;;;;;21.75;44.12;100736.17;2162600;80;20988;-74
2022/09/01 10:45:00;;;;;;;0.88;0.80;;;;;;;21.08;41.55;100734.63;2190599;79;20993;-80
2022/09/01 10:48:27;;;;;;;2.67;1.00;;;;;;;20.36;43.37;100740.84;2189951;80;21045;-78
2022/09/01 10:51:34;;;;;;;1.05;0.80;;;;;;;20.05;43.97;100741.09;2191845;79;20959;-73
2022/09/01 10:54:43;;;;;;;2.95;0.70;;;;;;;20.51;44.25;100745.92;2189651;79;21477;-73
2022/09/01 10:58:19;;;;;;;2.62;1.00;;;;;;;20.51;42.72;100740.00;2188162;80;21499;-77
2022/09/01 11:01:43;;;;;;;1.67;1.02;;;;;;;20.00;43.15;100739.55;2072397;83;21035;-81
2022/09/01 11:04:50;;;;;;;0.95;0.72;;;;;;;19.92;45.15;100738.45;2190485;80;20993;-75
2022/09/01 11:07:51;;;;;;;1.65;1.30;;;;;;;20.51;44.20;100737.84;2195686;79;20981;-73
2022/09/01 11:11:07;;;;;;;0.68;0.68;;;;;;;20.95;44.47;100734.77;2160726;79;21017;-73
2022/09/01 11:14:26;;;;;;;2.33;0.70;;;;;;;20.55;42.19;100737.23;2190889;79;21026;-73
2022/09/01 11:17:37;;;;;;;1.57;0.85;;;;;;;19.93;42.04;100741.44;2191216;80;21093;-73
2022/09/01 11:20:41;;;;;;;1.00;0.75;;;;;;;19.75;44.42;100739.44;2189674;79;21495;-74
2022/09/01 11:23:45;;;;;;;1.45;0.68;;;;;;;20.17;43.99;100736.38;2190952;79;21057;-73
2022/09/01 11:26:48;;;;;;;2.47;0.57;;;;;;;20.63;43.61;100733.42;2189069;79;21714;-79
2022/09/01 11:30:01;;;;;;;2.50;0.85;;;;;;;20.01;42.62;100737.16;2187736;80;20972;-85
2022/09/01 11:33:22;;;;;;;1.10;0.80;;;;;;;19.53;44.40;100745.56;2187098;79;21022;-75
2022/09/01 11:36:47;;;;;;;1.27;1.02;;;;;;;19.08;44.82;100744.06;2183118;79;20993;-73
2022/09/01 11:39:52;;;;;;;0.82;0.72;;;;;;;18.74;45.36;100746.44;2183881;80;20950;-84
2022/09/01 11:42:56;;;;;;;3.70;0.80;;;;;;;18.67;46.46;100747.75;2192800;79;20979;-85
2022/09/01 11:46:13;;;;;;;1.12;0.78;;;;;;;19.25;46.93;100741.78;2141350;80;21015;-73
2022/09/01 11:49:32;;;;;;;0.70;0.70;;;;;;;19.90;46.62;100733.26;2164051;80;21021;-76
2022/09/01 11:52:37;;;;;;;4.12;0.88;;;;;;;20.48;46.21;100722.92;2190236;80;21081;-73
2022/09/01 11:55:48;;;;;;;0.80;0.80;;;;;;;21.11;45.40;100723.92;2192111;80;21081;-72
2022/09/01 11:58:50;;;;;;;2.45;1.27;;;;;;;21.36;44.75;100720.66;2182220;80;21033;-73
2022/09/01 12:01:58;;;;;;;2.15;0.80;;;;;;;20.82;43.73;100722.20;2167340;79;21079;-79
2022/09/01 12:05:03;;;;;;;3.22;0.90;;;;;;;20.44;43.95;100721.72;2195622;79;21584;-79
2022/09/01 12:08:16;;;;;;;4.33;0.80;;;;;;;20.16;44.66;100723.44;2195705;80;21042;-76
2022/09/01 12:11:30;;;;;;;0.70;0.70;;;;;;;20.11;43.97;100717.33;2188213;79;20947;-72
2022/09/01 12:14:31;;;;;;;1.37;0.70;;;;;;;20.41;45.00;100722.13;2187281;79;21123;-74
2022/09/01 12:17:34;;;;;;;5.20;0.90;;;;;;;20.05;44.68;100719.55;2168942;80;21496;-72
2022/09/01 12:20:41;;;;;;;2.33;0.90;;;;;;;19.54;45.08;100718.13;2194270;79;20992;-73
2022/09/01 12:23:44;;;;;;;1.65;1.02;;;;;;;19.28;45.93;100719.84;2166314;80;20999;-74
2022/09/01 12:26:50;;;;;;;1.70;0.90;;;;;;;19.09;46.14;100716.16;2187440;80;21069;-73
2022/09/01 12:29:52;;;;;;;1.32;0.88;;;;;;;18.96;46.64;100716.98;2157534;80;21037;-73
2022/09/01 12:32:59;;;;;;;2.75;0.88;;;;;;;19.19;47.50;100704.44;2193876;80;21058;-74
2022/09/01 12:36:34;;;;;;;2.65;0.75;;;;;;;19.78;47.42;100702.66;2193237;80;21532;-76
2022/09/01 12:39:53;;;;;;;1.62;0.70;;;;;;;20.35;45.58;100702.78;2071010;82;21069;-73
2022/09/01 12:42:54;;;;;;;0.75;0.72;;;;;;;20.18;43.84;100705.16;2113090;79;21002;-75
2022/09/01 12:45:59;;;;;;;1.35;0.80;;;;;;;20.13;44.17;100701.79;2135752;80;21031;-83
2022/09/01 12:49:18;;;;;;;1.22;1.00;;;;;;;20.26;44.62;100700.05;2196617;80;21088;-73
2022/09/01 12:52:24;;;;;;;;;;;;;;;20.40;44.85;100698.10;2168501;80;21505;-77
2022/09/01 12:55:33;;;;;;;3.45;1.27;;;;;;;20.78;43.63;100694.85;2189161;80;20416;-76
2022/09/01 12:58:35;;;;;;;1.57;0.90;;;;;;;20.97;45.05;100695.70;2187417;79;20985;-76
2022/09/01 13:01:39;;;;;;;1.95;1.00;;;;;;;21.00;44.59;100695.26;2158383;80;20979;-74
2022/09/01 13:04:41;;;;;;;1.37;0.70;;;;;;;20.95;43.87;100695.13;2164051;80;21045;-75
2022/09/01 13:07:45;;;;;;;0.70;0.70;;;;;;;20.46;43.08;100698.05;2188397;79;21086;-73
2022/09/01 13:10:52;;;;;;;4.10;0.90;;;;;;;19.95;42.88;100700.31;2189487;79;20994;-73
2022/09/01 13:13:56;;;;;;;0.95;0.80;;;;;;;19.44;43.95;100697.05;2157018;79;21053;-76
2022/09/01 13:16:58;;;;;;;1.07;0.72;;;;;;;19.09;44.00;100696.48;2189609;79;20998;-76
2022/09/01 13:20:00;;;;;;;2.33;0.90;;;;;;;19.10;44.76;100692.77;2160141;80;21013;-72
2022/09/01 13:23:03;;;;;;;0.72;0.70;;;;;;;19.17;44.77;100693.05;2160062;80;21540;-75
2022/09/01 13:26:09;;;;;;;0.93;0.85;;;;;;;19.20;44.64;100695.34;2165121;80;20919;-73
2022/09/01 13:29:11;;;;;;;0.68;0.60;;;;;;;19.24;45.36;100689.02;2164470;79;20991;-85
2022/09/01 13:32:14;;;;;;;2.80;1.00;;;;;;;19.32;45.79;100692.02;2165100;80;20927;-78
2022/09/01 13:35:20;;;;;;;2.50;0.82;;;;;;;19.45;46.57;100689.27;2170385;80;21013;-72
2022/09/01 13:38:26;;;;;;;4.30;0.78;;;;;;;19.69;45.36;100683.23;2185471;79;21069;-72
2022/09/01 13:41:30;;;;;;;1.25;0.80;;;;;;;19.73;45.51;100692.22;2156219;80;20986;-75
2022/09/01 13:44:34;;;;;;;2.15;0.90;;;;;;;19.90;45.53;100690.70;2164120;79;21057;-79
2022/09/01 13:47:39;;;;;;;1.30;0.80;;;;;;;20.25;45.83;100688.98;2184506;80;21502;-88
2022/09/01 13:50:50;;;;;;;1.32;1.10;;;;;;;20.41;42.93;100682.23;2185685;79;21588;-85
2022/09/01 13:53:54;;;;;;;1.22;0.70;;;;;;;20.35;43.96;100682.57;2133921;79;21062;-79
2022/09/01 13:56:58;;;;;;;1.40;1.00;;;;;;;20.40;43.59;100688.14;2171999;80;21027;-72
2022/09/01 14:00:05;;;;;;;2.25;0.50;;;;;;;20.41;43.45;100684.39;2191858;80;21014;-73
2022/09/01 14:03:19;;;;;;;0.50;0.50;;;;;;;20.43;43.15;100678.80;2187728;80;20967;-74
2022/09/01 14:06:21;;;;;;;6.35;1.12;;;;;;;20.27;42.05;100684.17;2190595;80;20990;-76
2022/09/01 14:09:22;;;;;;;1.00;0.72;;;;;;;20.15;42.74;100678.13;2169266;80;21014;-73
2022/09/01 14:12:23;;;;;;;2.15;0.68;;;;;;;20.13;42.86;100673.50;2150324;80;20947;-81
2022/09/01 14:16:07;;;;;;;0.72;0.60;;;;;;;20.09;42.27;100669.57;2161038;80;21007;-84
2022/09/01 14:19:14;;;;;;;2.40;0.70;;;;;;;20.14;42.21;100671.10;2155446;80;21007;-79
2022/09/01 14:22:16;;;;;;;2.05;0.80;;;;;;;20.11;41.90;100666.67;2168789;80;21002;-81
2022/09/01 14:25:46;;;;;;;0.82;0.70;;;;;;;20.26;41.41;100667.19;2192992;79;21030;-73
2022/09/01 14:28:48;;;;;;;1.62;0.90;;;;;;;20.22;40.96;100666.52;2162551;80;20998;-72
2022/09/01 14:31:49;;;;;;;0.98;0.90;;;;;;;20.17;40.90;100666.33;2185498;80;21496;-76